createdAt,value
2022-10-28T00:01:55.081Z,18.50
2022-10-28T00:04:23.820Z,18.49
2022-10-28T00:06:52.244Z,18.48
2022-10-28T00:09:20.655Z,18.47
2022-10-28T00:11:50.359Z,18.45
2022-10-28T00:14:18.729Z,18.47
2022-10-28T00:16:47.131Z,18.49
2022-10-28T00:19:16.035Z,18.50
2022-10-28T00:21:45.708Z,18.49
2022-10-28T00:24:15.648Z,18.50
2022-10-28T00:26:46.007Z,18.49
2022-10-28T00:29:19.190Z,18.47
2022-10-28T00:31:48.380Z,18.46
2022-10-28T00:34:19.412Z,18.44
2022-10-28T00:36:49.451Z,18.42
2022-10-28T00:39:20.690Z,18.41
2022-10-28T00:41:51.582Z,18.39
2022-10-28T00:44:53.670Z,18.33
2022-10-28T00:47:52.612Z,18.30
2022-10-28T00:50:38.589Z,18.31
2022-10-28T00:53:11.951Z,18.33
2022-10-28T00:55:40.566Z,18.34
2022-10-28T00:58:11.578Z,18.33
2022-10-28T01:00:41.741Z,18.33
2022-10-28T01:03:10.539Z,18.33
2022-10-28T01:05:43.755Z,18.33
2022-10-28T01:08:12.739Z,18.34
2022-10-28T01:11:17.233Z,18.29
2022-10-28T01:14:13.626Z,18.28
2022-10-28T01:17:12.929Z,18.25
2022-10-28T01:20:39.772Z,18.22
2022-10-28T01:23:17.347Z,18.27
2022-10-28T01:26:28.216Z,18.24
2022-10-28T01:29:55.592Z,18.23
2022-10-28T01:32:33.899Z,18.24
2022-10-28T01:35:13.561Z,18.27
2022-10-28T01:37:54.767Z,18.26
2022-10-28T01:40:32.394Z,18.23
2022-10-28T01:43:11.886Z,18.21
2022-10-28T01:45:51.504Z,18.20
2022-10-28T01:48:27.218Z,18.20
2022-10-28T01:51:01.223Z,18.18
2022-10-28T01:53:36.985Z,18.17
2022-10-28T01:56:11.107Z,18.18
2022-10-28T01:58:41.208Z,18.18
2022-10-28T02:01:11.431Z,18.19
2022-10-28T02:03:41.282Z,18.23
2022-10-28T02:06:18.734Z,18.24
2022-10-28T02:09:12.666Z,18.25
2022-10-28T02:12:26.491Z,18.24
2022-10-28T02:15:28.958Z,18.23
2022-10-28T02:18:23.296Z,18.26
2022-10-28T02:20:56.988Z,18.26
2022-10-28T02:23:42.286Z,18.26
2022-10-28T02:26:20.560Z,18.25
2022-10-28T02:28:57.174Z,18.23
2022-10-28T02:31:33.036Z,18.22
2022-10-28T02:34:06.863Z,18.22
2022-10-28T02:36:41.689Z,18.21
2022-10-28T02:39:11.530Z,18.22
2022-10-28T02:41:48.404Z,18.22
2022-10-28T02:44:26.022Z,18.23
2022-10-28T02:46:59.975Z,18.25
2022-10-28T02:49:33.007Z,18.26
2022-10-28T02:52:07.312Z,18.25
2022-10-28T02:54:41.361Z,18.27
2022-10-28T02:57:14.783Z,18.28
2022-10-28T02:59:43.468Z,18.29
2022-10-28T03:02:11.895Z,18.30
2022-10-28T03:04:40.290Z,18.31
2022-10-28T03:07:10.015Z,18.32
2022-10-28T03:09:38.453Z,18.32
2022-10-28T03:12:07.135Z,18.32
2022-10-28T03:14:35.528Z,18.32
2022-10-28T03:17:03.935Z,18.31
2022-10-28T03:19:32.307Z,18.32
2022-10-28T03:22:00.764Z,18.34
2022-10-28T03:24:30.598Z,18.34
2022-10-28T03:26:59.060Z,18.35
2022-10-28T03:29:27.556Z,18.35
2022-10-28T03:31:55.929Z,18.36
2022-10-28T03:34:24.378Z,18.38
2022-10-28T03:36:52.760Z,18.37
2022-10-28T03:39:21.104Z,18.36
2022-10-28T03:41:50.851Z,18.36
2022-10-28T03:44:19.209Z,18.39
2022-10-28T03:46:47.546Z,18.40
2022-10-28T03:49:15.885Z,18.41
2022-10-28T03:51:44.254Z,18.43
2022-10-28T03:54:12.599Z,18.43
2022-10-28T03:56:41.455Z,18.43
2022-10-28T03:59:14.095Z,18.42
2022-10-28T04:01:44.898Z,18.42
2022-10-28T04:04:13.414Z,18.42
2022-10-28T04:06:42.912Z,18.41
2022-10-28T04:09:11.263Z,18.41
2022-10-28T04:11:39.596Z,18.41
2022-10-28T04:14:07.915Z,18.42
2022-10-28T04:16:37.649Z,18.41
2022-10-28T04:19:06.005Z,18.41
2022-10-28T04:21:34.696Z,18.40
2022-10-28T04:24:03.038Z,18.38
2022-10-28T04:26:31.990Z,18.37
2022-10-28T04:29:00.495Z,18.36
2022-10-28T04:31:28.845Z,18.33
2022-10-28T04:33:58.567Z,18.32
2022-10-28T04:36:27.010Z,18.31
2022-10-28T04:38:55.420Z,18.30
2022-10-28T04:41:23.789Z,18.31
2022-10-28T04:43:52.123Z,18.32
2022-10-28T04:46:20.501Z,18.32
2022-10-28T04:48:49.065Z,18.32
2022-10-28T04:51:18.802Z,18.33
2022-10-28T04:53:47.159Z,18.35
2022-10-28T04:56:15.537Z,18.34
2022-10-28T04:58:43.881Z,18.31
2022-10-28T05:01:12.485Z,18.27
2022-10-28T05:03:40.908Z,18.26
2022-10-28T05:06:09.467Z,18.28
2022-10-28T05:08:39.170Z,18.26
2022-10-28T05:11:07.850Z,18.26
2022-10-28T05:13:36.206Z,18.26
2022-10-28T05:16:04.666Z,18.26
2022-10-28T05:18:33.072Z,18.26
2022-10-28T05:21:01.465Z,18.28
2022-10-28T05:23:30.802Z,18.27
2022-10-28T05:26:00.892Z,18.26
2022-10-28T05:28:29.281Z,18.23
2022-10-28T05:30:57.726Z,18.22
2022-10-28T05:33:26.245Z,18.22
2022-10-28T05:35:54.750Z,18.21
2022-10-28T05:38:23.077Z,18.20
2022-10-28T05:40:51.494Z,18.19
2022-10-28T05:43:21.287Z,18.17
2022-10-28T05:45:54.317Z,18.15
2022-10-28T05:48:22.792Z,18.16
2022-10-28T05:50:51.293Z,18.16
2022-10-28T05:53:19.741Z,18.17
2022-10-28T05:55:48.165Z,18.14
2022-10-28T05:58:16.624Z,18.15
2022-10-28T06:00:46.400Z,18.13
2022-10-28T06:03:14.797Z,18.12
2022-10-28T06:05:45.790Z,18.10
2022-10-28T06:08:15.004Z,18.10
2022-10-28T06:10:49.407Z,18.11
2022-10-28T06:13:17.783Z,18.11
2022-10-28T06:15:52.185Z,18.08
2022-10-28T06:18:20.801Z,18.14
2022-10-28T06:20:55.402Z,18.13
2022-10-28T06:23:25.568Z,18.13
2022-10-28T06:28:31.840Z,18.14
2022-10-28T06:31:07.038Z,18.12
2022-10-28T06:33:35.893Z,18.13
2022-10-28T06:36:05.136Z,18.14
2022-10-28T06:38:33.626Z,18.17
2022-10-28T06:41:02.164Z,18.19
2022-10-28T06:43:30.576Z,18.22
2022-10-28T06:46:01.881Z,18.22
2022-10-28T06:48:33.370Z,18.22
2022-10-28T06:51:01.896Z,18.20
2022-10-28T06:53:30.308Z,18.19
2022-10-28T06:55:59.850Z,18.17
2022-10-28T06:58:28.900Z,18.17
2022-10-28T07:00:57.429Z,18.18
2022-10-28T07:03:25.843Z,18.21
2022-10-28T07:05:56.847Z,18.22
2022-10-28T07:08:25.324Z,18.26
2022-10-28T07:10:57.698Z,18.28
2022-10-28T07:13:26.984Z,18.30
2022-10-28T07:15:57.312Z,18.34
2022-10-28T07:18:27.934Z,18.38
2022-10-28T07:20:59.951Z,18.42
2022-10-28T07:23:28.486Z,18.47
2022-10-28T07:25:57.828Z,18.49
2022-10-28T07:28:27.450Z,18.49
2022-10-28T07:30:55.963Z,18.50
2022-10-28T07:33:24.429Z,18.53
2022-10-28T07:35:52.801Z,18.56
2022-10-28T07:38:22.615Z,18.61
2022-10-28T07:40:50.992Z,18.64
2022-10-28T07:43:19.416Z,18.70
2022-10-28T07:45:47.847Z,18.74
2022-10-28T07:48:16.305Z,18.76
2022-10-28T07:50:44.678Z,18.78
2022-10-28T07:53:13.075Z,18.80
2022-10-28T07:55:42.838Z,18.81
2022-10-28T07:58:11.220Z,18.81
2022-10-28T08:00:39.640Z,18.85
2022-10-28T08:03:08.052Z,18.90
2022-10-28T08:05:36.992Z,18.92
2022-10-28T08:08:05.482Z,18.91
2022-10-28T08:10:33.875Z,18.89
2022-10-28T08:13:03.779Z,18.90
2022-10-28T08:15:32.200Z,18.92
2022-10-28T08:18:00.624Z,18.92
2022-10-28T08:20:29.053Z,18.91
2022-10-28T08:23:01.748Z,18.91
2022-10-28T08:25:32.510Z,18.93
2022-10-28T08:28:02.284Z,18.95
2022-10-28T08:30:36.550Z,18.93
2022-10-28T08:33:13.760Z,18.95
2022-10-28T08:35:42.263Z,18.97
2022-10-28T08:38:11.123Z,19.02
2022-10-28T08:40:52.026Z,19.06
2022-10-28T08:43:45.931Z,19.08
2022-10-28T08:46:27.805Z,19.10
2022-10-28T08:48:56.494Z,19.10
2022-10-28T08:51:35.726Z,19.10
2022-10-28T08:54:12.923Z,19.11
2022-10-28T08:56:46.152Z,19.13
2022-10-28T08:59:21.718Z,19.17
2022-10-28T09:04:32.970Z,19.20
2022-10-28T09:07:02.404Z,19.16
2022-10-28T09:09:31.041Z,19.11
2022-10-28T09:12:13.645Z,19.09
2022-10-28T09:15:14.913Z,19.09
2022-10-28T09:17:54.079Z,19.15
2022-10-28T09:20:30.979Z,19.23
2022-10-28T09:23:01.160Z,19.31
2022-10-28T09:25:39.095Z,19.36
2022-10-28T09:28:26.406Z,19.37
2022-10-28T09:31:08.557Z,19.42
2022-10-28T09:33:50.917Z,19.48
2022-10-28T09:36:29.007Z,19.52
2022-10-28T09:39:00.717Z,19.55
2022-10-28T09:41:33.687Z,19.59
2022-10-28T09:44:11.946Z,19.66
2022-10-28T09:46:42.096Z,19.72
2022-10-28T09:49:19.158Z,19.73
2022-10-28T09:51:53.377Z,19.73
2022-10-28T09:54:31.685Z,19.72
2022-10-28T09:57:00.302Z,19.69
2022-10-28T09:59:28.755Z,19.66
2022-10-28T10:01:58.721Z,19.68
2022-10-28T10:04:31.276Z,19.74
2022-10-28T10:07:04.894Z,19.78
2022-10-28T10:09:36.246Z,19.79
2022-10-28T10:12:09.547Z,19.81
2022-10-28T10:14:43.647Z,19.84
2022-10-28T10:17:19.464Z,19.86
2022-10-28T10:20:03.945Z,19.85
2022-10-28T10:22:35.237Z,19.85
2022-10-28T10:25:03.791Z,19.86
2022-10-28T10:27:32.979Z,19.84
2022-10-28T10:30:01.581Z,19.83
2022-10-28T10:32:33.483Z,19.82
2022-10-28T10:35:16.052Z,19.82
2022-10-28T10:37:47.097Z,19.83
2022-10-28T10:40:25.384Z,19.85
2022-10-28T10:43:13.220Z,19.92
2022-10-28T10:45:43.290Z,19.94
2022-10-28T10:48:18.791Z,19.96
2022-10-28T10:50:49.336Z,20.01
2022-10-28T10:53:26.429Z,20.04
2022-10-28T10:56:01.846Z,20.09
2022-10-28T10:58:34.905Z,20.13
2022-10-28T11:01:07.402Z,20.16
2022-10-28T11:03:41.133Z,20.21
2022-10-28T11:06:24.626Z,20.22
2022-10-28T11:08:59.293Z,20.19
2022-10-28T11:11:37.045Z,20.17
2022-10-28T11:14:19.346Z,20.19
2022-10-28T11:16:52.591Z,20.21
2022-10-28T11:19:25.837Z,20.23
2022-10-28T11:22:13.599Z,20.24
2022-10-28T11:25:10.226Z,20.25
2022-10-28T11:27:56.320Z,20.33
2022-10-28T11:30:40.128Z,20.41
2022-10-28T11:33:29.401Z,20.48
2022-10-28T11:36:14.655Z,20.49
2022-10-28T11:39:09.130Z,20.49
2022-10-28T11:41:54.702Z,20.52
2022-10-28T11:44:41.463Z,20.55
2022-10-28T11:47:31.670Z,20.62
2022-10-28T11:50:27.532Z,20.64
2022-10-28T11:53:27.615Z,20.62
2022-10-28T11:56:03.275Z,20.63
2022-10-28T11:58:42.594Z,20.61
2022-10-28T12:01:27.425Z,20.62
2022-10-28T12:04:13.705Z,20.65
2022-10-28T12:07:16.815Z,20.69
2022-10-28T12:10:04.605Z,20.72
2022-10-28T12:12:41.425Z,20.75
2022-10-28T12:15:20.529Z,20.76
2022-10-28T12:17:56.572Z,20.79
2022-10-28T12:20:31.644Z,20.84
2022-10-28T12:23:04.484Z,20.86
2022-10-28T12:25:40.464Z,20.91
2022-10-28T12:28:19.646Z,20.91
2022-10-28T12:30:49.293Z,20.92
2022-10-28T12:33:22.080Z,20.94
2022-10-28T12:35:56.849Z,20.93
2022-10-28T12:38:31.532Z,20.91
2022-10-28T12:41:09.176Z,20.88
2022-10-28T12:43:43.773Z,20.86
2022-10-28T12:46:26.129Z,20.82
2022-10-28T12:49:01.178Z,20.80
2022-10-28T12:51:35.835Z,20.78
2022-10-28T12:54:16.171Z,20.69
2022-10-28T12:56:53.758Z,20.61
2022-10-28T12:59:31.908Z,20.58
2022-10-28T13:02:01.632Z,20.58
2022-10-28T13:04:30.624Z,20.57
2022-10-28T13:07:37.680Z,20.51
2022-10-28T13:10:20.167Z,20.51
2022-10-28T13:13:18.592Z,20.52
2022-10-28T13:16:12.070Z,20.56
2022-10-28T13:19:38.471Z,20.57
2022-10-28T13:22:33.546Z,20.60
2022-10-28T13:25:22.466Z,20.62
2022-10-28T13:27:58.553Z,20.58
2022-10-28T13:30:28.356Z,20.51
2022-10-28T13:33:07.271Z,20.44
2022-10-28T13:35:37.502Z,20.44
2022-10-28T13:38:13.811Z,20.39
2022-10-28T13:41:25.227Z,20.28
2022-10-28T13:44:27.848Z,20.19
2022-10-28T13:47:26.240Z,20.15
2022-10-28T13:50:33.558Z,20.14
2022-10-28T13:53:45.215Z,20.14
2022-10-28T13:56:38.046Z,20.16
2022-10-28T13:59:20.489Z,20.14
2022-10-28T14:02:34.409Z,20.13
2022-10-28T14:05:07.755Z,20.18
2022-10-28T14:07:39.415Z,20.20
2022-10-28T14:10:22.922Z,20.21
2022-10-28T14:12:55.874Z,20.23
2022-10-28T14:15:32.097Z,20.21
2022-10-28T14:18:16.055Z,20.18
2022-10-28T14:21:01.611Z,20.11
2022-10-28T14:24:08.706Z,20.03
2022-10-28T14:27:31.067Z,19.97
2022-10-28T14:30:23.750Z,19.93
2022-10-28T14:33:12.515Z,19.94
2022-10-28T14:35:44.389Z,19.90
2022-10-28T14:38:54.331Z,19.84
2022-10-28T14:41:59.026Z,19.81
2022-10-28T14:44:52.209Z,19.77
2022-10-28T14:47:56.275Z,19.74
2022-10-28T14:50:35.546Z,19.74
2022-10-28T14:53:09.191Z,19.72
2022-10-28T14:55:38.526Z,19.69
2022-10-28T14:58:22.965Z,19.61
2022-10-28T15:01:07.878Z,19.55
2022-10-28T15:03:36.753Z,19.52
2022-10-28T15:06:28.301Z,19.48
2022-10-28T15:08:58.600Z,19.47
2022-10-28T15:11:27.024Z,19.40
2022-10-28T15:13:56.510Z,19.31
2022-10-28T15:16:26.591Z,19.25
2022-10-28T15:18:55.997Z,19.20
2022-10-28T15:21:25.753Z,19.17
2022-10-28T15:24:02.333Z,19.12
2022-10-28T15:26:30.872Z,19.13
2022-10-28T15:28:59.383Z,19.11
2022-10-28T15:31:27.871Z,19.10
2022-10-28T15:33:56.233Z,19.12
2022-10-28T15:36:27.677Z,19.10
2022-10-28T15:39:08.479Z,19.10
2022-10-28T15:41:49.501Z,19.09
2022-10-28T15:44:39.531Z,19.05
2022-10-28T15:47:21.259Z,19.01
2022-10-28T15:50:23.770Z,18.98
2022-10-28T15:52:57.147Z,18.98
2022-10-28T15:56:02.387Z,18.94
2022-10-28T15:58:43.170Z,18.86
2022-10-28T16:01:31.038Z,18.84
2022-10-28T16:04:00.269Z,18.86
2022-10-28T16:06:31.962Z,18.88
2022-10-28T16:09:17.067Z,18.89
2022-10-28T16:11:48.723Z,18.91
2022-10-28T16:14:32.792Z,18.90
2022-10-28T16:17:15.291Z,18.93
2022-10-28T16:19:50.649Z,18.92
2022-10-28T16:22:19.790Z,18.93
2022-10-28T16:24:52.055Z,18.92
2022-10-28T16:27:23.129Z,18.92
2022-10-28T16:29:52.638Z,18.90
2022-10-28T16:32:27.918Z,18.90
2022-10-28T16:34:58.963Z,18.90
2022-10-28T16:37:30.227Z,18.92
2022-10-28T16:40:00.042Z,18.91
2022-10-28T16:42:28.761Z,18.91
2022-10-28T16:44:57.299Z,18.90
2022-10-28T16:47:28.016Z,18.90
2022-10-28T16:49:57.760Z,18.91
2022-10-28T16:52:29.426Z,18.91
2022-10-28T16:54:59.806Z,18.90
2022-10-28T16:57:29.408Z,18.88
2022-10-28T16:59:57.950Z,18.86
2022-10-28T17:02:31.246Z,18.87
2022-10-28T17:05:01.281Z,18.86
2022-10-28T17:07:31.288Z,18.84
2022-10-28T17:10:01.406Z,18.81
2022-10-28T17:12:30.268Z,18.81
2022-10-28T17:14:58.969Z,18.81
2022-10-28T17:17:27.423Z,18.80
2022-10-28T17:19:56.544Z,18.77
2022-10-28T17:22:25.259Z,18.76
2022-10-28T17:24:54.623Z,18.75
2022-10-28T17:27:25.950Z,18.76
2022-10-28T17:29:54.892Z,18.77
2022-10-28T17:32:24.156Z,18.76
2022-10-28T17:34:53.471Z,18.76
2022-10-28T17:37:22.334Z,18.77
2022-10-28T17:39:51.210Z,18.78
2022-10-28T17:42:20.571Z,18.77
2022-10-28T17:44:50.959Z,18.74
2022-10-28T17:47:19.996Z,18.74
2022-10-28T17:49:49.199Z,18.72
2022-10-28T17:52:19.307Z,18.70
2022-10-28T17:54:47.847Z,18.68
2022-10-28T17:57:18.062Z,18.66
2022-10-28T17:59:47.437Z,18.67
2022-10-28T18:02:18.274Z,18.70
2022-10-28T18:04:47.275Z,18.72
2022-10-28T18:07:18.640Z,18.70
2022-10-28T18:09:48.049Z,18.71
2022-10-28T18:12:17.203Z,18.72
2022-10-28T18:14:47.782Z,18.71
2022-10-28T18:17:18.331Z,18.70
2022-10-28T18:19:47.811Z,18.72
2022-10-28T18:22:16.755Z,18.73
2022-10-28T18:24:46.202Z,18.74
2022-10-28T18:27:16.697Z,18.76
2022-10-28T18:29:46.348Z,18.77
2022-10-28T18:32:16.830Z,18.77
2022-10-28T18:34:47.948Z,18.78
2022-10-28T18:37:17.732Z,18.80
2022-10-28T18:39:47.389Z,18.79
2022-10-28T18:42:21.929Z,18.77
2022-10-28T18:44:58.388Z,18.76
2022-10-28T18:47:28.779Z,18.77
2022-10-28T18:50:01.296Z,18.78
2022-10-28T18:52:30.995Z,18.80
2022-10-28T18:55:01.547Z,18.80
2022-10-28T18:57:31.392Z,18.79
2022-10-28T19:00:18.309Z,18.79
2022-10-28T19:02:48.858Z,18.78
2022-10-28T19:05:19.340Z,18.77
2022-10-28T19:07:48.707Z,18.78
2022-10-28T19:10:18.785Z,18.77
2022-10-28T19:12:52.756Z,18.77
2022-10-28T19:15:23.359Z,18.74
2022-10-28T19:17:55.157Z,18.74
2022-10-28T19:20:25.795Z,18.73
2022-10-28T19:22:57.827Z,18.75
2022-10-28T19:25:27.345Z,18.76
2022-10-28T19:27:56.872Z,18.79
2022-10-28T19:30:26.438Z,18.80
2022-10-28T19:32:57.476Z,18.79
2022-10-28T19:35:29.275Z,18.79
2022-10-28T19:37:58.642Z,18.79
2022-10-28T19:40:29.047Z,18.76
2022-10-28T19:42:58.605Z,18.76
2022-10-28T19:45:28.642Z,18.76
2022-10-28T19:47:57.878Z,18.75
2022-10-28T19:50:29.074Z,18.77
2022-10-28T19:52:58.311Z,18.80
2022-10-28T19:55:27.867Z,18.79
2022-10-28T19:57:57.231Z,18.81
2022-10-28T20:00:26.660Z,18.82
2022-10-28T20:02:55.708Z,18.85
2022-10-28T20:05:24.820Z,18.87
2022-10-28T20:07:56.265Z,18.88
2022-10-28T20:10:25.393Z,18.90
2022-10-28T20:12:54.385Z,18.92
2022-10-28T20:15:23.705Z,18.95
2022-10-28T20:17:52.440Z,18.97
2022-10-28T20:20:21.418Z,18.98
2022-10-28T20:22:50.637Z,18.98
2022-10-28T20:25:21.025Z,18.97
2022-10-28T20:27:51.907Z,18.98
2022-10-28T20:30:20.744Z,18.98
2022-10-28T20:32:53.352Z,18.99
2022-10-28T20:35:24.571Z,18.98
2022-10-28T20:37:56.490Z,18.97
2022-10-28T20:40:27.900Z,18.98
2022-10-28T20:42:56.755Z,18.99
2022-10-28T20:45:25.914Z,19.01
2022-10-28T20:47:55.048Z,19.01
2022-10-28T20:50:23.616Z,19.03
2022-10-28T20:52:52.324Z,19.05
2022-10-28T20:55:20.939Z,19.06
2022-10-28T20:57:50.707Z,19.08
2022-10-28T21:00:19.611Z,19.07
2022-10-28T21:02:48.151Z,19.07
2022-10-28T21:05:16.983Z,19.06
2022-10-28T21:07:45.354Z,19.06
2022-10-28T21:10:13.789Z,19.05
2022-10-28T21:12:42.167Z,19.06
2022-10-28T21:15:13.241Z,19.04
2022-10-28T21:17:41.611Z,19.06
2022-10-28T21:20:11.726Z,19.06
2022-10-28T21:22:40.205Z,19.07
2022-10-28T21:25:10.259Z,19.07
2022-10-28T21:27:38.788Z,19.08
2022-10-28T21:30:09.439Z,19.10
2022-10-28T21:32:39.612Z,19.13
2022-10-28T21:35:09.118Z,19.14
2022-10-28T21:37:37.609Z,19.16
2022-10-28T21:40:07.620Z,19.13
2022-10-28T21:42:36.148Z,19.13
2022-10-28T21:45:07.749Z,19.11
2022-10-28T21:47:36.197Z,19.10
2022-10-28T21:50:06.883Z,19.08
2022-10-28T21:52:35.429Z,19.10
2022-10-28T21:55:09.915Z,19.11
2022-10-28T21:57:49.227Z,19.14
2022-10-28T22:00:18.012Z,19.14
2022-10-28T22:02:46.457Z,19.13
2022-10-28T22:05:16.636Z,19.12
2022-10-28T22:07:45.331Z,19.10
2022-10-28T22:10:13.733Z,19.08
2022-10-28T22:12:42.170Z,19.08
2022-10-28T22:15:11.468Z,19.06
2022-10-28T22:17:40.288Z,19.09
2022-10-28T22:20:10.951Z,19.10
2022-10-28T22:22:40.872Z,19.11
2022-10-28T22:25:10.721Z,19.12
2022-10-28T22:27:39.733Z,19.11
2022-10-28T22:30:09.912Z,19.11
2022-10-28T22:32:38.254Z,19.11
2022-10-28T22:35:08.320Z,19.10
2022-10-28T22:37:36.672Z,19.08
2022-10-28T22:40:08.016Z,19.06
2022-10-28T22:42:37.214Z,19.05
2022-10-28T22:45:06.741Z,19.05
2022-10-28T22:47:35.181Z,19.07
2022-10-28T22:50:03.780Z,19.07
2022-10-28T22:52:32.204Z,19.09
2022-10-28T22:55:00.596Z,19.08
2022-10-28T22:57:30.330Z,19.06
2022-10-28T22:59:58.672Z,19.05
2022-10-28T23:02:27.214Z,19.04
2022-10-28T23:04:55.669Z,19.01
2022-10-28T23:07:24.206Z,19.05
2022-10-28T23:09:52.536Z,19.06
2022-10-28T23:12:20.927Z,19.06
2022-10-28T23:14:50.649Z,19.04
2022-10-28T23:17:19.060Z,19.05
2022-10-28T23:19:47.392Z,19.05
2022-10-28T23:22:15.814Z,19.05
2022-10-28T23:24:44.176Z,19.03
2022-10-28T23:27:12.508Z,19.01
2022-10-28T23:29:40.845Z,18.99
2022-10-28T23:32:10.580Z,18.98
2022-10-28T23:34:39.017Z,18.98
2022-10-28T23:37:07.356Z,18.97
2022-10-28T23:39:35.737Z,18.97
2022-10-28T23:42:04.089Z,18.97
2022-10-28T23:44:32.528Z,18.93
2022-10-28T23:47:00.906Z,18.92
2022-10-28T23:49:30.650Z,18.91
2022-10-28T23:51:59.028Z,18.90
2022-10-28T23:54:27.428Z,18.89
2022-10-28T23:56:55.812Z,18.90
2022-10-28T23:59:24.222Z,18.88
